Aérodrome :
LOGIN :

S'inscrire | Disclaimer

   EN    FR    IT 

 










Légende :    VFR   VFR Marginal   IFR   IFR Intensif   IFR Très Intensif
Visi : 
Plafond : 
>= 8 km
>= 3000ft
5 à 8 km
1000 à 3000 ft
1500m à 5 km
500 à 1000 ft
800 à 1500m
200 à 500 ft
< 800m
< 200 ft
Symboles :   Orages  Brouillard  Fortes neiges  Fortes précipitations  Vent > 20 kt
SIGMETs :   Divers  Orages  Givrage  Turbulence  Onde Orograph.  Cendres Volcan.







- Altitude de l'aérodrome : 18 ft
- Code IATA : AJA
- Voir les cartes d'approche


LFKJ - Ajaccio

DERNIER METAR :
  • 240230Z AUTO 19005KT CAVOK 08/M13 Q1026 TEMPO 05015G25KT

METARs EXPIRÉS :
  • 240200Z AUTO 24003KT 160V290 CAVOK 09/M13 Q1026 TEMPO 05015G25KT
  • 240130Z AUTO 02014KT 360V060 CAVOK 12/M23 Q1026 TEMPO 05015G25KT
  • 240100Z AUTO 03006G22KT 340V100 CAVOK 12/M22 Q1027 NOSIG
  • 240030Z AUTO 07006KT 010V110 CAVOK 13/M22 Q1026 TEMPO 05015G25KT
  • 240000Z AUTO 02020KT CAVOK 13/M24 Q1026 TEMPO 05015G25KT

TAF TAF LFKJ
Valide du 23 à 21h jusqu'au 24 à 21h UTC


232000Z 2321/2421 04010KT CAVOK
PROB40
TEMPO 2321/2406 05015G25KT
BECMG 2411/2412 24010KT
BECMG 2415/2418 VRB03KT
ATIS : +33 4 95 23 59 85
Pas de NOTAMs connus pour ce terrain.
1 SIGMET publié pour la FIR Marseille (LFMM) :
 
Onde orographique forte
LFMM SIGMET 5 VALID 240100/240500 LFPW
LFMM MARSEILLE FIR/UIR SEV MTW FCST WI N4330 E00845 - N4315 E00945 - N4115 E00945 - N4115 E00830 - N4200 E00800 - N4330 E00845 SFC/FL200 STNR NC=



MET'MAP, la Météo Aéronautique d'un coup d'oeil ! - Copyright ORBIFLY Décembre 2007 - Disclaimer

ORBIFLY MET'MAP TEAM :

Programmation & Développement : Alexandra Zaïnal
Conception & Développement : Baudouin d'Aumeries
Co-Programmation & Développement : Marc-Olivier Méhu
Soutien technique & logistique : Manuel Goepfert

Contact : metmap@orbifly.com




SOURCES & CREDITS :

   NOAA